Tasman Sea — WDB5559 — position and weather

sailwx.info

Track history (hours):
 
Tides and Currents Weather Stations Pressure Air Temp Water Temp Dewpoint Dewpoint Depression Visibility Wind Speed Wind Dir Waves Ship Positions

Tasman Sea

Owner: Kirby Offshore Marine, LLC, Staten Island, NY. More information available from US FCC via Universal Licensing System and Coast Guard Vessel Documentation Center.

Last reported at 2017-Aug-08 10:28 UTC. Time now 2017-Aug-19 07:39 UTC.
Position N 40°38' W 074°07'.
Warning: this ship's position is 10 days out of date.

Length 36 m; draft 6.7 m.

Type: Tug. MMSI: 366910960.

Date/timePositionNaut miles runAvg speedWind from/ knotsBaromVisibWave heightAir tempDewpointWater temp
2017-Aug-08 10:28N 40°38' W 074°07'0 0.0
2017-Aug-08 09:58N 40°38' W 074°07'0 0.0
2017-Aug-08 09:28N 40°38' W 074°07'0 0.0
2017-Aug-08 08:58N 40°38' W 074°07'0 0.0
2017-Aug-08 08:25N 40°38' W 074°07'0 0.0
2017-Aug-08 07:43N 40°38' W 074°07'0 0.0
2017-Aug-08 07:25N 40°38' W 074°07'0 0.0
2017-Aug-08 06:55N 40°38' W 074°07'0 0.0
2017-Aug-08 06:25N 40°38' W 074°07'0 0.0
2017-Aug-08 05:55N 40°38' W 074°07'0 0.0
2017-Aug-08 05:28N 40°38' W 074°07'0 0.0
2017-Aug-08 04:58N 40°38' W 074°07'0 0.0
2017-Aug-08 04:28N 40°38' W 074°07'0 0.0
2017-Aug-08 03:58N 40°38' W 074°07'0 0.0
2017-Aug-08 03:25N 40°38' W 074°07'0 0.0
2017-Aug-08 02:58N 40°38' W 074°07'0 0.0
2017-Aug-08 02:28N 40°38' W 074°07'0 0.0
2017-Aug-08 01:58N 40°38' W 074°07'0 0.0
2017-Aug-08 01:25N 40°38' W 074°07'0 0.0
2017-Aug-08 00:58N 40°38' W 074°07'0 0.0
2017-Aug-08 00:28N 40°38' W 074°07'0 0.0
2017-Aug-07 23:58N 40°38' W 074°07'0 0.0
2017-Aug-07 23:25N 40°38' W 074°07'0 0.0
2017-Aug-07 22:58N 40°38' W 074°07'0 0.0
2017-Aug-07 22:28N 40°38' W 074°07'0 0.0
2017-Aug-07 21:58N 40°38' W 074°07'0 0.0
2017-Aug-07 21:28N 40°38' W 074°07'0 0.0
2017-Aug-07 20:55N 40°38' W 074°07'0 0.2
2017-Aug-07 20:29N 40°39' W 074°07'2 4.0
2017-Aug-07 20:00N 40°39' W 074°10'0 0.1
2017-Aug-07 19:28N 40°38' W 074°10'0 0.0
2017-Aug-07 19:00N 40°38' W 074°10'1 2.2
2017-Aug-07 18:30N 40°39' W 074°08'4 8.1
2017-Aug-07 18:00N 40°40' W 074°03'5 9.1
2017-Aug-07 17:30N 40°42' W 073°58'0 0.0
2017-Aug-07 17:00N 40°42' W 073°58'0 0.1
2017-Aug-07 16:31N 40°42' W 073°58'0 0.8
2017-Aug-07 16:00N 40°42' W 073°59'2 4.3
2017-Aug-07 15:30N 40°41' W 074°01'3 5.2
2017-Aug-07 15:00N 40°39' W 074°03'0 0.3
2017-Aug-07 14:28N 40°39' W 074°03'0 0.2
2017-Aug-07 13:58N 40°39' W 074°03'0 0.1
2017-Aug-07 13:28N 40°39' W 074°03'0 0.8
2017-Aug-07 13:00N 40°39' W 074°03'3 5.7
2017-Aug-07 12:30N 40°41' W 074°01'2 4.2
2017-Aug-07 12:00N 40°42' W 073°58'0 0.2
2017-Aug-07 11:30N 40°42' W 073°58'0 0.0
2017-Aug-07 11:00N 40°42' W 073°58'0 0.0
2017-Aug-07 10:30N 40°42' W 073°58'0 0.0
2017-Aug-07 10:00N 40°42' W 073°58'0 0.0
2017-Aug-07 09:30N 40°42' W 073°58'0 0.0
2017-Aug-07 09:00N 40°42' W 073°58'0 0.0
2017-Aug-07 08:30N 40°42' W 073°58'0 0.0
2017-Aug-07 07:54N 40°42' W 073°58'0 0.0
2017-Aug-07 07:30N 40°42' W 073°58'0 0.0
2017-Aug-07 07:00N 40°42' W 073°58'0 0.0
2017-Aug-07 06:30N 40°42' W 073°58'0 0.0
2017-Aug-07 06:00N 40°42' W 073°58'0 0.0
2017-Aug-07 05:30N 40°42' W 073°58'0 0.0
2017-Aug-07 05:00N 40°42' W 073°58'0 0.0
2017-Aug-07 04:30N 40°42' W 073°58'0 0.0
2017-Aug-07 04:00N 40°42' W 073°58'0 0.0
2017-Aug-07 03:30N 40°42' W 073°58'0 0.0
2017-Aug-07 02:57N 40°42' W 073°58'0 0.0
2017-Aug-07 02:30N 40°42' W 073°58'0 0.0
2017-Aug-07 02:00N 40°42' W 073°58'0 0.0
2017-Aug-07 01:30N 40°42' W 073°58'0 0.0
2017-Aug-07 01:00N 40°42' W 073°58'0 0.0
2017-Aug-07 00:24N 40°42' W 073°58'0 0.0
2017-Aug-06 23:57N 40°42' W 073°58'0 0.0
2017-Aug-06 23:30N 40°42' W 073°58'0 0.0
2017-Aug-06 22:57N 40°42' W 073°58'0 0.0
2017-Aug-06 22:30N 40°42' W 073°58'0 0.0
2017-Aug-06 22:00N 40°42' W 073°58'0 0.0
2017-Aug-06 21:30N 40°42' W 073°58'0 0.0
2017-Aug-06 21:00N 40°42' W 073°58'0 0.0
2017-Aug-06 20:30N 40°42' W 073°58'0 0.0
2017-Aug-06 20:00N 40°42' W 073°58'0 0.0
2017-Aug-06 19:27N 40°42' W 073°58'0 0.0
2017-Aug-06 19:00N 40°42' W 073°58'0 0.0
2017-Aug-06 18:30N 40°42' W 073°58'0 0.0
2017-Aug-06 17:54N 40°42' W 073°58'0 0.0
2017-Aug-06 17:30N 40°42' W 073°58'0 0.0
2017-Aug-06 17:00N 40°42' W 073°58'0 0.0
2017-Aug-06 16:30N 40°42' W 073°58'0 0.0
2017-Aug-06 16:00N 40°42' W 073°58'0 0.0
2017-Aug-06 15:30N 40°42' W 073°58'0 0.0
2017-Aug-06 15:00N 40°42' W 073°58'0 0.0
2017-Aug-06 14:30N 40°42' W 073°58'0 0.0
2017-Aug-06 14:00N 40°42' W 073°58'0 0.0
2017-Aug-06 13:30N 40°42' W 073°58'0 0.0
2017-Aug-06 13:00N 40°42' W 073°58'0 0.0
2017-Aug-06 12:27N 40°42' W 073°58'0 0.0
2017-Aug-06 12:00N 40°42' W 073°58'0 0.0
2017-Aug-06 11:30N 40°42' W 073°58'0 0.0
2017-Aug-06 11:00N 40°42' W 073°58'0 0.0
2017-Aug-06 10:30N 40°42' W 073°58'0 0.0
2017-Aug-06 10:00N 40°42' W 073°58'0 0.0
2017-Aug-06 09:30N 40°42' W 073°58'0 0.0
2017-Aug-06 09:00N 40°42' W 073°58'0 0.0
2017-Aug-06 08:30N 40°42' W 073°58'0 0.0
2017-Aug-06 08:00N 40°42' W 073°58'0 0.0
2017-Aug-06 07:30N 40°42' W 073°58'0 0.0
2017-Aug-06 07:00N 40°42' W 073°58'0 0.0
2017-Aug-06 06:30N 40°42' W 073°58'0 0.0
2017-Aug-06 06:00N 40°42' W 073°58'0 0.0
2017-Aug-06 05:30N 40°42' W 073°58'0 0.0
2017-Aug-06 05:00N 40°42' W 073°58'0 0.0
2017-Aug-06 04:30N 40°42' W 073°58'0 0.0
2017-Aug-06 04:00N 40°42' W 073°58'0 0.0
2017-Aug-06 03:30N 40°42' W 073°58'0 0.0
2017-Aug-06 03:00N 40°42' W 073°58'0 0.0
2017-Aug-06 02:30N 40°42' W 073°58'0 0.0
2017-Aug-06 02:00N 40°42' W 073°58'0 0.0
2017-Aug-06 01:30N 40°42' W 073°58'0 0.0
2017-Aug-06 01:00N 40°42' W 073°58'0 0.0
2017-Aug-06 00:30N 40°42' W 073°58'0 0.0
2017-Aug-06 00:00N 40°42' W 073°58'0 0.0
2017-Aug-05 23:30N 40°42' W 073°58'0 0.0
2017-Aug-05 23:00N 40°42' W 073°58'0 0.0
2017-Aug-05 22:30N 40°42' W 073°58'0 0.0
2017-Aug-05 22:00N 40°42' W 073°58'0 0.0
2017-Aug-05 21:30N 40°42' W 073°58'0 0.0
2017-Aug-05 21:00N 40°42' W 073°58'0 0.0
2017-Aug-05 20:30N 40°42' W 073°58'0 0.0
2017-Aug-05 20:00N 40°42' W 073°58'0 0.0
2017-Aug-05 19:30N 40°42' W 073°58'0 0.0
2017-Aug-05 19:00N 40°42' W 073°58'0 0.0
2017-Aug-05 18:30N 40°42' W 073°58'0 0.0
2017-Aug-05 18:00N 40°42' W 073°58'0 0.0
2017-Aug-05 17:30N 40°42' W 073°58'0 0.0
2017-Aug-05 17:00N 40°42' W 073°58'0 0.0
2017-Aug-05 16:30N 40°42' W 073°58'0 0.0
2017-Aug-05 16:00N 40°42' W 073°58'0 0.0
2017-Aug-05 15:30N 40°42' W 073°58'0 0.0
2017-Aug-05 15:00N 40°42' W 073°58'0 0.0
2017-Aug-05 14:30N 40°42' W 073°58'0 0.0
2017-Aug-05 13:54N 40°42' W 073°58'0 0.0
2017-Aug-05 13:27N 40°42' W 073°58'0 0.0
2017-Aug-05 13:00N 40°42' W 073°58'0 0.0
2017-Aug-05 12:30N 40°42' W 073°58'0 0.0
2017-Aug-05 12:00N 40°42' W 073°58'0 0.0
2017-Aug-05 11:30N 40°42' W 073°58'0 0.0
2017-Aug-05 11:00N 40°42' W 073°58'0 0.0
2017-Aug-05 10:30N 40°42' W 073°58'0 0.0
2017-Aug-05 10:00N 40°42' W 073°58'0 0.0
2017-Aug-05 09:30N 40°42' W 073°58'0 0.0
2017-Aug-05 09:00N 40°42' W 073°58'0 0.0
2017-Aug-05 08:30N 40°42' W 073°58'0 0.0
2017-Aug-05 08:00N 40°42' W 073°58'0 0.0
2017-Aug-05 07:30N 40°42' W 073°58'0 0.0
2017-Aug-05 07:00N 40°42' W 073°58'0 0.0
2017-Aug-05 06:30N 40°42' W 073°58'0 0.0
2017-Aug-05 06:00N 40°42' W 073°58'0 0.0
2017-Aug-05 05:30N 40°42' W 073°58'0 0.0
2017-Aug-05 05:00N 40°42' W 073°58'0 0.0
2017-Aug-05 04:30N 40°42' W 073°58'0 0.0
2017-Aug-05 04:00N 40°42' W 073°58'0 0.0
2017-Aug-05 03:30N 40°42' W 073°58'0 0.0
2017-Aug-05 03:00N 40°42' W 073°58'0 0.0
2017-Aug-05 02:30N 40°42' W 073°58'0 0.0
2017-Aug-05 01:57N 40°42' W 073°58'0 0.0
2017-Aug-05 01:30N 40°42' W 073°58'0 0.0
2017-Aug-05 01:00N 40°42' W 073°58'0 0.0
2017-Aug-05 00:30N 40°42' W 073°58'0 0.0
2017-Aug-05 00:00N 40°42' W 073°58'0 0.0
2017-Aug-04 23:30N 40°42' W 073°58'0 0.0
2017-Aug-04 23:00N 40°42' W 073°58'0 0.0
2017-Aug-04 22:30N 40°42' W 073°58'0 0.0
2017-Aug-04 22:00N 40°42' W 073°58'0 0.0
2017-Aug-04 21:30N 40°42' W 073°58'0 0.0
2017-Aug-04 21:00N 40°42' W 073°58'0 0.0
2017-Aug-04 20:30N 40°42' W 073°58'0 0.0
2017-Aug-04 20:00N 40°42' W 073°58'0 0.0
2017-Aug-04 19:30N 40°42' W 073°58'0 0.0
2017-Aug-04 19:00N 40°42' W 073°58'0 0.0
2017-Aug-04 18:30N 40°42' W 073°58'0 0.0
2017-Aug-04 18:00N 40°42' W 073°58'0 0.0
2017-Aug-04 17:27N 40°42' W 073°58'0 0.0
2017-Aug-04 17:00N 40°42' W 073°58'0 0.0
2017-Aug-04 16:30N 40°42' W 073°58'0 0.0
2017-Aug-04 16:00N 40°42' W 073°58'0 0.0
2017-Aug-04 15:30N 40°42' W 073°58'0 0.0
2017-Aug-04 15:00N 40°42' W 073°58'0 0.0
2017-Aug-04 14:00N 40°42' W 073°58'0 0.0
2017-Aug-04 13:30N 40°42' W 073°58'0 0.0
2017-Aug-04 13:00N 40°42' W 073°58'0 0.0
2017-Aug-04 12:30N 40°42' W 073°58'0 0.0
2017-Aug-04 12:00N 40°42' W 073°58'0 0.0
2017-Aug-04 11:30N 40°42' W 073°58'0 0.0
2017-Aug-04 11:00N 40°42' W 073°58'0 0.0
2017-Aug-04 10:30N 40°42' W 073°58'0 0.0
2017-Aug-04 10:00N 40°42' W 073°58'0 0.0
2017-Aug-04 09:30N 40°42' W 073°58'0 0.0
2017-Aug-04 09:00N 40°42' W 073°58'0 0.0
2017-Aug-04 08:30N 40°42' W 073°58'0 0.0
2017-Aug-04 08:00N 40°42' W 073°58'0 0.0
2017-Aug-04 07:30N 40°42' W 073°58'0 0.0
2017-Aug-04 07:00N 40°42' W 073°58'0 0.0
2017-Aug-04 06:30N 40°42' W 073°58'0 0.0
2017-Aug-04 06:00N 40°42' W 073°58'0 0.0
2017-Aug-04 05:30N 40°42' W 073°58'0 0.0
2017-Aug-04 05:00N 40°42' W 073°58'0 0.0
2017-Aug-04 04:30N 40°42' W 073°58'0 0.0
2017-Aug-04 04:00N 40°42' W 073°58'0 0.0
2017-Aug-04 03:30N 40°42' W 073°58'0 0.0
2017-Aug-04 03:00N 40°42' W 073°58'0 0.0
2017-Aug-04 02:30N 40°42' W 073°58'0 0.0
2017-Aug-04 02:00N 40°42' W 073°58'0 0.0
2017-Aug-04 01:30N 40°42' W 073°58'0 0.5
2017-Aug-04 01:00N 40°42' W 073°58'0 0.5
2017-Aug-04 00:30N 40°42' W 073°58'0 0.0
2017-Aug-04 00:00N 40°42' W 073°58'0 0.0
2017-Aug-03 23:30N 40°42' W 073°58'0 0.0
2017-Aug-03 23:00N 40°42' W 073°58'0 0.0
2017-Aug-03 22:30N 40°42' W 073°58'0 0.0
2017-Aug-03 22:00N 40°42' W 073°58'0 0.0
2017-Aug-03 21:30N 40°42' W 073°58'0 0.0
2017-Aug-03 21:00N 40°42' W 073°58'0 0.0
2017-Aug-03 20:30N 40°42' W 073°58'0 0.0
2017-Aug-03 20:00N 40°42' W 073°58'0 0.0
2017-Aug-03 19:30N 40°42' W 073°58'0 0.0
2017-Aug-03 19:00N 40°42' W 073°58'0 0.0
2017-Aug-03 18:30N 40°42' W 073°58'0 0.0
2017-Aug-03 18:00N 40°42' W 073°58'0 0.0
2017-Aug-03 17:30N 40°42' W 073°58'0 0.0
2017-Aug-03 17:00N 40°42' W 073°58'0 0.0
2017-Aug-03 16:30N 40°42' W 073°58'0 0.0
2017-Aug-03 16:00N 40°42' W 073°58'0 0.0
2017-Aug-03 15:30N 40°42' W 073°58'0 0.0
2017-Aug-03 15:00N 40°42' W 073°58'0 0.0
2017-Aug-03 14:00N 40°42' W 073°58'0 0.0
2017-Aug-03 13:30N 40°42' W 073°58'0 0.0
2017-Aug-03 13:00N 40°42' W 073°58'0 0.0
2017-Aug-03 12:30N 40°42' W 073°58'0 0.0
2017-Aug-03 12:00N 40°42' W 073°58'0 0.0
2017-Aug-03 11:30N 40°42' W 073°58'0 0.0
2017-Aug-03 11:00N 40°42' W 073°58'0 0.0
2017-Aug-03 10:30N 40°42' W 073°58'0 0.0
2017-Aug-03 10:00N 40°42' W 073°58'0 0.0
2017-Aug-03 09:30N 40°42' W 073°58'0 0.0
2017-Aug-03 09:00N 40°42' W 073°58'0 0.0
2017-Aug-03 08:30N 40°42' W 073°58'0 0.0
2017-Aug-03 08:00N 40°42' W 073°58'0 0.0
2017-Aug-03 07:30N 40°42' W 073°58'0 0.0
2017-Aug-03 06:57N 40°42' W 073°58'0 0.0
2017-Aug-03 06:30N 40°42' W 073°58'0 0.0
2017-Aug-03 06:00N 40°42' W 073°58'0 0.0
2017-Aug-03 05:30N 40°42' W 073°58'0 0.0
2017-Aug-03 05:00N 40°42' W 073°58'0 0.0
2017-Aug-03 04:30N 40°42' W 073°58'0 0.0
2017-Aug-03 04:00N 40°42' W 073°58'0 0.0
2017-Aug-03 03:30N 40°42' W 073°58'0 0.0
2017-Aug-03 03:00N 40°42' W 073°58'0 0.0
2017-Aug-03 02:30N 40°42' W 073°58'0 0.0
2017-Aug-03 01:57N 40°42' W 073°58'0 0.0
2017-Aug-03 01:30N 40°42' W 073°58'0 0.0
2017-Aug-03 01:00N 40°42' W 073°58'0 0.0
2017-Aug-03 00:30N 40°42' W 073°58'0 0.0
2017-Aug-03 00:00N 40°42' W 073°58'0 0.0
2017-Aug-02 23:30N 40°42' W 073°58'0 0.0
2017-Aug-02 23:00N 40°42' W 073°58'0 0.0
2017-Aug-02 22:30N 40°42' W 073°58'0 0.0
2017-Aug-02 22:00N 40°42' W 073°58'0 0.0
2017-Aug-02 21:30N 40°42' W 073°58'0 0.0
2017-Aug-02 21:00N 40°42' W 073°58'0 0.0
2017-Aug-02 20:30N 40°42' W 073°58'0 0.0
2017-Aug-02 19:57N 40°42' W 073°58'0 0.0
2017-Aug-02 19:30N 40°42' W 073°58'0 0.0
2017-Aug-02 19:00N 40°42' W 073°58'0 0.0
2017-Aug-02 18:30N 40°42' W 073°58'0 0.0
2017-Aug-02 18:00N 40°42' W 073°58'0 0.0
2017-Aug-02 17:30N 40°42' W 073°58'0 0.0
2017-Aug-02 16:57N 40°42' W 073°58'0 0.0
2017-Aug-02 16:30N 40°42' W 073°58'0 0.0
2017-Aug-02 16:00N 40°42' W 073°58'0 0.0
2017-Aug-02 15:30N 40°42' W 073°58'0 0.0
2017-Aug-02 15:00N 40°42' W 073°58'0 0.0
2017-Aug-02 13:30N 40°42' W 073°58'0 0.0
2017-Aug-02 13:00N 40°42' W 073°58'0 0.0
2017-Aug-02 12:30N 40°42' W 073°58'0 0.0
2017-Aug-02 12:00N 40°42' W 073°58'0 0.0
2017-Aug-02 11:30N 40°42' W 073°58'0 0.0
2017-Aug-02 11:00N 40°42' W 073°58'0 0.0
2017-Aug-02 10:30N 40°42' W 073°58'0 0.0
2017-Aug-02 10:00N 40°42' W 073°58'0 0.0
2017-Aug-02 09:30N 40°42' W 073°58'0 0.0
2017-Aug-02 09:00N 40°42' W 073°58'0 0.0
2017-Aug-02 08:30N 40°42' W 073°58'0 0.0
2017-Aug-02 08:00N 40°42' W 073°58'0 0.0
2017-Aug-02 07:30N 40°42' W 073°58'0 0.0
2017-Aug-02 07:00N 40°42' W 073°58'0 0.0
2017-Aug-02 06:30N 40°42' W 073°58'0 0.0
2017-Aug-02 06:00N 40°42' W 073°58'0 0.0
2017-Aug-02 05:30N 40°42' W 073°58'0 0.0
2017-Aug-02 05:00N 40°42' W 073°58'0 0.0
2017-Aug-02 04:30N 40°42' W 073°58'0 0.0
2017-Aug-02 04:00N 40°42' W 073°58'0 0.0
2017-Aug-02 03:30N 40°42' W 073°58'0 0.0
2017-Aug-02 03:00N 40°42' W 073°58'0 0.0
2017-Aug-02 02:30N 40°42' W 073°58'0 0.0
2017-Aug-02 02:00N 40°42' W 073°58'  
2017-Jul-29 19:00N 40°42' W 073°60'3 6.1
2017-Jul-29 18:30N 40°40' W 074°02'2 4.2
2017-Jul-29 18:00N 40°38' W 074°03'0 0.7
2017-Jul-29 17:30N 40°38' W 074°04'2 4.4
2017-Jul-29 17:00N 40°39' W 074°07'2 4.5
2017-Jul-29 16:30N 40°38' W 074°09'0 0.6
2017-Jul-29 16:00N 40°38' W 074°10'0 0.0
2017-Jul-29 15:30N 40°38' W 074°10'0 0.0
2017-Jul-29 14:54N 40°38' W 074°10'0 0.0
2017-Jul-29 14:00N 40°38' W 074°10'0 0.0
2017-Jul-29 13:30N 40°38' W 074°10'0 0.0
2017-Jul-29 12:54N 40°38' W 074°10'0 0.0
2017-Jul-29 12:30N 40°38' W 074°10'0 0.0
2017-Jul-29 11:54N 40°38' W 074°10'0 0.0
2017-Jul-29 11:30N 40°38' W 074°10'0 0.0
2017-Jul-29 10:46N 40°38' W 074°10'  
Track history (hours):
 
Tides and Currents Weather Stations Pressure Air Temp Water Temp Dewpoint Dewpoint Depression Visibility Wind Speed Wind Dir Waves Ship Positions

Tasman Sea

Owner: Kirby Offshore Marine, LLC, Staten Island, NY. More information available from US FCC via Universal Licensing System and Coast Guard Vessel Documentation Center.

Last reported at 2017-Aug-08 10:28 UTC. Time now 2017-Aug-19 07:39 UTC.
Position N 40°38' W 074°07'.
Warning: this ship's position is 10 days out of date.

Length 36 m; draft 6.7 m.

Type: Tug. MMSI: 366910960.

Date/timePositionNaut miles runAvg speedWind from/ knotsBaromVisibWave heightAir tempDewpointWater temp
2017-Aug-08 10:28N 40°38' W 074°07'0 0.0
2017-Aug-08 09:58N 40°38' W 074°07'0 0.0
2017-Aug-08 09:28N 40°38' W 074°07'0 0.0
2017-Aug-08 08:58N 40°38' W 074°07'0 0.0
2017-Aug-08 08:25N 40°38' W 074°07'0 0.0
2017-Aug-08 07:43N 40°38' W 074°07'0 0.0
2017-Aug-08 07:25N 40°38' W 074°07'0 0.0
2017-Aug-08 06:55N 40°38' W 074°07'0 0.0
2017-Aug-08 06:25N 40°38' W 074°07'0 0.0
2017-Aug-08 05:55N 40°38' W 074°07'0 0.0
2017-Aug-08 05:28N 40°38' W 074°07'0 0.0
2017-Aug-08 04:58N 40°38' W 074°07'0 0.0
2017-Aug-08 04:28N 40°38' W 074°07'0 0.0
2017-Aug-08 03:58N 40°38' W 074°07'0 0.0
2017-Aug-08 03:25N 40°38' W 074°07'0 0.0
2017-Aug-08 02:58N 40°38' W 074°07'0 0.0
2017-Aug-08 02:28N 40°38' W 074°07'0 0.0
2017-Aug-08 01:58N 40°38' W 074°07'0 0.0
2017-Aug-08 01:25N 40°38' W 074°07'0 0.0
2017-Aug-08 00:58N 40°38' W 074°07'0 0.0
2017-Aug-08 00:28N 40°38' W 074°07'0 0.0
2017-Aug-07 23:58N 40°38' W 074°07'0 0.0
2017-Aug-07 23:25N 40°38' W 074°07'0 0.0
2017-Aug-07 22:58N 40°38' W 074°07'0 0.0
2017-Aug-07 22:28N 40°38' W 074°07'0 0.0
2017-Aug-07 21:58N 40°38' W 074°07'0 0.0
2017-Aug-07 21:28N 40°38' W 074°07'0 0.0
2017-Aug-07 20:55N 40°38' W 074°07'0 0.2
2017-Aug-07 20:29N 40°39' W 074°07'2 4.0
2017-Aug-07 20:00N 40°39' W 074°10'0 0.1
2017-Aug-07 19:28N 40°38' W 074°10'0 0.0
2017-Aug-07 19:00N 40°38' W 074°10'1 2.2
2017-Aug-07 18:30N 40°39' W 074°08'4 8.1
2017-Aug-07 18:00N 40°40' W 074°03'5 9.1
2017-Aug-07 17:30N 40°42' W 073°58'0 0.0
2017-Aug-07 17:00N 40°42' W 073°58'0 0.1
2017-Aug-07 16:31N 40°42' W 073°58'0 0.8
2017-Aug-07 16:00N 40°42' W 073°59'2 4.3
2017-Aug-07 15:30N 40°41' W 074°01'3 5.2
2017-Aug-07 15:00N 40°39' W 074°03'0 0.3
2017-Aug-07 14:28N 40°39' W 074°03'0 0.2
2017-Aug-07 13:58N 40°39' W 074°03'0 0.1
2017-Aug-07 13:28N 40°39' W 074°03'0 0.8
2017-Aug-07 13:00N 40°39' W 074°03'3 5.7
2017-Aug-07 12:30N 40°41' W 074°01'2 4.2
2017-Aug-07 12:00N 40°42' W 073°58'0 0.2
2017-Aug-07 11:30N 40°42' W 073°58'0 0.0
2017-Aug-07 11:00N 40°42' W 073°58'0 0.0
2017-Aug-07 10:30N 40°42' W 073°58'0 0.0
2017-Aug-07 10:00N 40°42' W 073°58'0 0.0
2017-Aug-07 09:30N 40°42' W 073°58'0 0.0
2017-Aug-07 09:00N 40°42' W 073°58'0 0.0
2017-Aug-07 08:30N 40°42' W 073°58'0 0.0
2017-Aug-07 07:54N 40°42' W 073°58'0 0.0
2017-Aug-07 07:30N 40°42' W 073°58'0 0.0
2017-Aug-07 07:00N 40°42' W 073°58'0 0.0
2017-Aug-07 06:30N 40°42' W 073°58'0 0.0
2017-Aug-07 06:00N 40°42' W 073°58'0 0.0
2017-Aug-07 05:30N 40°42' W 073°58'0 0.0
2017-Aug-07 05:00N 40°42' W 073°58'0 0.0
2017-Aug-07 04:30N 40°42' W 073°58'0 0.0
2017-Aug-07 04:00N 40°42' W 073°58'0 0.0
2017-Aug-07 03:30N 40°42' W 073°58'0 0.0
2017-Aug-07 02:57N 40°42' W 073°58'0 0.0
2017-Aug-07 02:30N 40°42' W 073°58'0 0.0
2017-Aug-07 02:00N 40°42' W 073°58'0 0.0
2017-Aug-07 01:30N 40°42' W 073°58'0 0.0
2017-Aug-07 01:00N 40°42' W 073°58'0 0.0
2017-Aug-07 00:24N 40°42' W 073°58'0 0.0
2017-Aug-06 23:57N 40°42' W 073°58'0 0.0
2017-Aug-06 23:30N 40°42' W 073°58'0 0.0
2017-Aug-06 22:57N 40°42' W 073°58'0 0.0
2017-Aug-06 22:30N 40°42' W 073°58'0 0.0
2017-Aug-06 22:00N 40°42' W 073°58'0 0.0
2017-Aug-06 21:30N 40°42' W 073°58'0 0.0
2017-Aug-06 21:00N 40°42' W 073°58'0 0.0
2017-Aug-06 20:30N 40°42' W 073°58'0 0.0
2017-Aug-06 20:00N 40°42' W 073°58'0 0.0
2017-Aug-06 19:27N 40°42' W 073°58'0 0.0
2017-Aug-06 19:00N 40°42' W 073°58'0 0.0
2017-Aug-06 18:30N 40°42' W 073°58'0 0.0
2017-Aug-06 17:54N 40°42' W 073°58'0 0.0
2017-Aug-06 17:30N 40°42' W 073°58'0 0.0
2017-Aug-06 17:00N 40°42' W 073°58'0 0.0
2017-Aug-06 16:30N 40°42' W 073°58'0 0.0
2017-Aug-06 16:00N 40°42' W 073°58'0 0.0
2017-Aug-06 15:30N 40°42' W 073°58'0 0.0
2017-Aug-06 15:00N 40°42' W 073°58'0 0.0
2017-Aug-06 14:30N 40°42' W 073°58'0 0.0
2017-Aug-06 14:00N 40°42' W 073°58'0 0.0
2017-Aug-06 13:30N 40°42' W 073°58'0 0.0
2017-Aug-06 13:00N 40°42' W 073°58'0 0.0
2017-Aug-06 12:27N 40°42' W 073°58'0 0.0
2017-Aug-06 12:00N 40°42' W 073°58'0 0.0
2017-Aug-06 11:30N 40°42' W 073°58'0 0.0
2017-Aug-06 11:00N 40°42' W 073°58'0 0.0
2017-Aug-06 10:30N 40°42' W 073°58'0 0.0
2017-Aug-06 10:00N 40°42' W 073°58'0 0.0
2017-Aug-06 09:30N 40°42' W 073°58'0 0.0
2017-Aug-06 09:00N 40°42' W 073°58'0 0.0
2017-Aug-06 08:30N 40°42' W 073°58'0 0.0
2017-Aug-06 08:00N 40°42' W 073°58'0 0.0
2017-Aug-06 07:30N 40°42' W 073°58'0 0.0
2017-Aug-06 07:00N 40°42' W 073°58'0 0.0
2017-Aug-06 06:30N 40°42' W 073°58'0 0.0
2017-Aug-06 06:00N 40°42' W 073°58'0 0.0
2017-Aug-06 05:30N 40°42' W 073°58'0 0.0
2017-Aug-06 05:00N 40°42' W 073°58'0 0.0
2017-Aug-06 04:30N 40°42' W 073°58'0 0.0
2017-Aug-06 04:00N 40°42' W 073°58'0 0.0
2017-Aug-06 03:30N 40°42' W 073°58'0 0.0
2017-Aug-06 03:00N 40°42' W 073°58'0 0.0
2017-Aug-06 02:30N 40°42' W 073°58'0 0.0
2017-Aug-06 02:00N 40°42' W 073°58'0 0.0
2017-Aug-06 01:30N 40°42' W 073°58'0 0.0
2017-Aug-06 01:00N 40°42' W 073°58'0 0.0
2017-Aug-06 00:30N 40°42' W 073°58'0 0.0
2017-Aug-06 00:00N 40°42' W 073°58'0 0.0
2017-Aug-05 23:30N 40°42' W 073°58'0 0.0
2017-Aug-05 23:00N 40°42' W 073°58'0 0.0
2017-Aug-05 22:30N 40°42' W 073°58'0 0.0
2017-Aug-05 22:00N 40°42' W 073°58'0 0.0
2017-Aug-05 21:30N 40°42' W 073°58'0 0.0
2017-Aug-05 21:00N 40°42' W 073°58'0 0.0
2017-Aug-05 20:30N 40°42' W 073°58'0 0.0
2017-Aug-05 20:00N 40°42' W 073°58'0 0.0
2017-Aug-05 19:30N 40°42' W 073°58'0 0.0
2017-Aug-05 19:00N 40°42' W 073°58'0 0.0
2017-Aug-05 18:30N 40°42' W 073°58'0 0.0
2017-Aug-05 18:00N 40°42' W 073°58'0 0.0
2017-Aug-05 17:30N 40°42' W 073°58'0 0.0
2017-Aug-05 17:00N 40°42' W 073°58'0 0.0
2017-Aug-05 16:30N 40°42' W 073°58'0 0.0
2017-Aug-05 16:00N 40°42' W 073°58'0 0.0
2017-Aug-05 15:30N 40°42' W 073°58'0 0.0
2017-Aug-05 15:00N 40°42' W 073°58'0 0.0
2017-Aug-05 14:30N 40°42' W 073°58'0 0.0
2017-Aug-05 13:54N 40°42' W 073°58'0 0.0
2017-Aug-05 13:27N 40°42' W 073°58'0 0.0
2017-Aug-05 13:00N 40°42' W 073°58'0 0.0
2017-Aug-05 12:30N 40°42' W 073°58'0 0.0
2017-Aug-05 12:00N 40°42' W 073°58'0 0.0
2017-Aug-05 11:30N 40°42' W 073°58'0 0.0
2017-Aug-05 11:00N 40°42' W 073°58'0 0.0
2017-Aug-05 10:30N 40°42' W 073°58'0 0.0
2017-Aug-05 10:00N 40°42' W 073°58'0 0.0
2017-Aug-05 09:30N 40°42' W 073°58'0 0.0
2017-Aug-05 09:00N 40°42' W 073°58'0 0.0
2017-Aug-05 08:30N 40°42' W 073°58'0 0.0
2017-Aug-05 08:00N 40°42' W 073°58'0 0.0
2017-Aug-05 07:30N 40°42' W 073°58'0 0.0
2017-Aug-05 07:00N 40°42' W 073°58'0 0.0
2017-Aug-05 06:30N 40°42' W 073°58'0 0.0
2017-Aug-05 06:00N 40°42' W 073°58'0 0.0
2017-Aug-05 05:30N 40°42' W 073°58'0 0.0
2017-Aug-05 05:00N 40°42' W 073°58'0 0.0
2017-Aug-05 04:30N 40°42' W 073°58'0 0.0
2017-Aug-05 04:00N 40°42' W 073°58'0 0.0
2017-Aug-05 03:30N 40°42' W 073°58'0 0.0
2017-Aug-05 03:00N 40°42' W 073°58'0 0.0
2017-Aug-05 02:30N 40°42' W 073°58'0 0.0
2017-Aug-05 01:57N 40°42' W 073°58'0 0.0
2017-Aug-05 01:30N 40°42' W 073°58'0 0.0
2017-Aug-05 01:00N 40°42' W 073°58'0 0.0
2017-Aug-05 00:30N 40°42' W 073°58'0 0.0
2017-Aug-05 00:00N 40°42' W 073°58'0 0.0
2017-Aug-04 23:30N 40°42' W 073°58'0 0.0
2017-Aug-04 23:00N 40°42' W 073°58'0 0.0
2017-Aug-04 22:30N 40°42' W 073°58'0 0.0
2017-Aug-04 22:00N 40°42' W 073°58'0 0.0
2017-Aug-04 21:30N 40°42' W 073°58'0 0.0
2017-Aug-04 21:00N 40°42' W 073°58'0 0.0
2017-Aug-04 20:30N 40°42' W 073°58'0 0.0
2017-Aug-04 20:00N 40°42' W 073°58'0 0.0
2017-Aug-04 19:30N 40°42' W 073°58'0 0.0
2017-Aug-04 19:00N 40°42' W 073°58'0 0.0
2017-Aug-04 18:30N 40°42' W 073°58'0 0.0
2017-Aug-04 18:00N 40°42' W 073°58'0 0.0
2017-Aug-04 17:27N 40°42' W 073°58'0 0.0
2017-Aug-04 17:00N 40°42' W 073°58'0 0.0
2017-Aug-04 16:30N 40°42' W 073°58'0 0.0
2017-Aug-04 16:00N 40°42' W 073°58'0 0.0
2017-Aug-04 15:30N 40°42' W 073°58'0 0.0
2017-Aug-04 15:00N 40°42' W 073°58'0 0.0
2017-Aug-04 14:00N 40°42' W 073°58'0 0.0
2017-Aug-04 13:30N 40°42' W 073°58'0 0.0
2017-Aug-04 13:00N 40°42' W 073°58'0 0.0
2017-Aug-04 12:30N 40°42' W 073°58'0 0.0
2017-Aug-04 12:00N 40°42' W 073°58'0 0.0
2017-Aug-04 11:30N 40°42' W 073°58'0 0.0
2017-Aug-04 11:00N 40°42' W 073°58'0 0.0
2017-Aug-04 10:30N 40°42' W 073°58'0 0.0
2017-Aug-04 10:00N 40°42' W 073°58'0 0.0
2017-Aug-04 09:30N 40°42' W 073°58'0 0.0
2017-Aug-04 09:00N 40°42' W 073°58'0 0.0
2017-Aug-04 08:30N 40°42' W 073°58'0 0.0
2017-Aug-04 08:00N 40°42' W 073°58'0 0.0
2017-Aug-04 07:30N 40°42' W 073°58'0 0.0
2017-Aug-04 07:00N 40°42' W 073°58'0 0.0
2017-Aug-04 06:30N 40°42' W 073°58'0 0.0
2017-Aug-04 06:00N 40°42' W 073°58'0 0.0
2017-Aug-04 05:30N 40°42' W 073°58'0 0.0
2017-Aug-04 05:00N 40°42' W 073°58'0 0.0
2017-Aug-04 04:30N 40°42' W 073°58'0 0.0
2017-Aug-04 04:00N 40°42' W 073°58'0 0.0
2017-Aug-04 03:30N 40°42' W 073°58'0 0.0
2017-Aug-04 03:00N 40°42' W 073°58'0 0.0
2017-Aug-04 02:30N 40°42' W 073°58'0 0.0
2017-Aug-04 02:00N 40°42' W 073°58'0 0.0
2017-Aug-04 01:30N 40°42' W 073°58'0 0.5
2017-Aug-04 01:00N 40°42' W 073°58'0 0.5
2017-Aug-04 00:30N 40°42' W 073°58'0 0.0
2017-Aug-04 00:00N 40°42' W 073°58'0 0.0
2017-Aug-03 23:30N 40°42' W 073°58'0 0.0
2017-Aug-03 23:00N 40°42' W 073°58'0 0.0
2017-Aug-03 22:30N 40°42' W 073°58'0 0.0
2017-Aug-03 22:00N 40°42' W 073°58'0 0.0
2017-Aug-03 21:30N 40°42' W 073°58'0 0.0
2017-Aug-03 21:00N 40°42' W 073°58'0 0.0
2017-Aug-03 20:30N 40°42' W 073°58'0 0.0
2017-Aug-03 20:00N 40°42' W 073°58'0 0.0
2017-Aug-03 19:30N 40°42' W 073°58'0 0.0
2017-Aug-03 19:00N 40°42' W 073°58'0 0.0
2017-Aug-03 18:30N 40°42' W 073°58'0 0.0
2017-Aug-03 18:00N 40°42' W 073°58'0 0.0
2017-Aug-03 17:30N 40°42' W 073°58'0 0.0
2017-Aug-03 17:00N 40°42' W 073°58'0 0.0
2017-Aug-03 16:30N 40°42' W 073°58'0 0.0
2017-Aug-03 16:00N 40°42' W 073°58'0 0.0
2017-Aug-03 15:30N 40°42' W 073°58'0 0.0
2017-Aug-03 15:00N 40°42' W 073°58'0 0.0
2017-Aug-03 14:00N 40°42' W 073°58'0 0.0
2017-Aug-03 13:30N 40°42' W 073°58'0 0.0
2017-Aug-03 13:00N 40°42' W 073°58'0 0.0
2017-Aug-03 12:30N 40°42' W 073°58'0 0.0
2017-Aug-03 12:00N 40°42' W 073°58'0 0.0
2017-Aug-03 11:30N 40°42' W 073°58'0 0.0
2017-Aug-03 11:00N 40°42' W 073°58'0 0.0
2017-Aug-03 10:30N 40°42' W 073°58'0 0.0
2017-Aug-03 10:00N 40°42' W 073°58'0 0.0
2017-Aug-03 09:30N 40°42' W 073°58'0 0.0
2017-Aug-03 09:00N 40°42' W 073°58'0 0.0
2017-Aug-03 08:30N 40°42' W 073°58'0 0.0
2017-Aug-03 08:00N 40°42' W 073°58'0 0.0
2017-Aug-03 07:30N 40°42' W 073°58'0 0.0
2017-Aug-03 06:57N 40°42' W 073°58'0 0.0
2017-Aug-03 06:30N 40°42' W 073°58'0 0.0
2017-Aug-03 06:00N 40°42' W 073°58'0 0.0
2017-Aug-03 05:30N 40°42' W 073°58'0 0.0
2017-Aug-03 05:00N 40°42' W 073°58'0 0.0
2017-Aug-03 04:30N 40°42' W 073°58'0 0.0
2017-Aug-03 04:00N 40°42' W 073°58'0 0.0
2017-Aug-03 03:30N 40°42' W 073°58'0 0.0
2017-Aug-03 03:00N 40°42' W 073°58'0 0.0
2017-Aug-03 02:30N 40°42' W 073°58'0 0.0
2017-Aug-03 01:57N 40°42' W 073°58'0 0.0
2017-Aug-03 01:30N 40°42' W 073°58'0 0.0
2017-Aug-03 01:00N 40°42' W 073°58'0 0.0
2017-Aug-03 00:30N 40°42' W 073°58'0 0.0
2017-Aug-03 00:00N 40°42' W 073°58'0 0.0
2017-Aug-02 23:30N 40°42' W 073°58'0 0.0
2017-Aug-02 23:00N 40°42' W 073°58'0 0.0
2017-Aug-02 22:30N 40°42' W 073°58'0 0.0
2017-Aug-02 22:00N 40°42' W 073°58'0 0.0
2017-Aug-02 21:30N 40°42' W 073°58'0 0.0
2017-Aug-02 21:00N 40°42' W 073°58'0 0.0
2017-Aug-02 20:30N 40°42' W 073°58'0 0.0
2017-Aug-02 19:57N 40°42' W 073°58'0 0.0
2017-Aug-02 19:30N 40°42' W 073°58'0 0.0
2017-Aug-02 19:00N 40°42' W 073°58'0 0.0
2017-Aug-02 18:30N 40°42' W 073°58'0 0.0
2017-Aug-02 18:00N 40°42' W 073°58'0 0.0
2017-Aug-02 17:30N 40°42' W 073°58'0 0.0
2017-Aug-02 16:57N 40°42' W 073°58'0 0.0
2017-Aug-02 16:30N 40°42' W 073°58'0 0.0
2017-Aug-02 16:00N 40°42' W 073°58'0 0.0
2017-Aug-02 15:30N 40°42' W 073°58'0 0.0
2017-Aug-02 15:00N 40°42' W 073°58'0 0.0
2017-Aug-02 13:30N 40°42' W 073°58'0 0.0
2017-Aug-02 13:00N 40°42' W 073°58'0 0.0
2017-Aug-02 12:30N 40°42' W 073°58'0 0.0
2017-Aug-02 12:00N 40°42' W 073°58'0 0.0
2017-Aug-02 11:30N 40°42' W 073°58'0 0.0
2017-Aug-02 11:00N 40°42' W 073°58'0 0.0
2017-Aug-02 10:30N 40°42' W 073°58'0 0.0
2017-Aug-02 10:00N 40°42' W 073°58'0 0.0
2017-Aug-02 09:30N 40°42' W 073°58'0 0.0
2017-Aug-02 09:00N 40°42' W 073°58'0 0.0
2017-Aug-02 08:30N 40°42' W 073°58'0 0.0
2017-Aug-02 08:00N 40°42' W 073°58'0 0.0
2017-Aug-02 07:30N 40°42' W 073°58'0 0.0
2017-Aug-02 07:00N 40°42' W 073°58'0 0.0
2017-Aug-02 06:30N 40°42' W 073°58'0 0.0
2017-Aug-02 06:00N 40°42' W 073°58'0 0.0
2017-Aug-02 05:30N 40°42' W 073°58'0 0.0
2017-Aug-02 05:00N 40°42' W 073°58'0 0.0
2017-Aug-02 04:30N 40°42' W 073°58'0 0.0
2017-Aug-02 04:00N 40°42' W 073°58'0 0.0
2017-Aug-02 03:30N 40°42' W 073°58'0 0.0
2017-Aug-02 03:00N 40°42' W 073°58'0 0.0
2017-Aug-02 02:30N 40°42' W 073°58'0 0.0
2017-Aug-02 02:00N 40°42' W 073°58'  
2017-Jul-29 19:00N 40°42' W 073°60'3 6.1
2017-Jul-29 18:30N 40°40' W 074°02'2 4.2
2017-Jul-29 18:00N 40°38' W 074°03'0 0.7
2017-Jul-29 17:30N 40°38' W 074°04'2 4.4
2017-Jul-29 17:00N 40°39' W 074°07'2 4.5
2017-Jul-29 16:30N 40°38' W 074°09'0 0.6
2017-Jul-29 16:00N 40°38' W 074°10'0 0.0
2017-Jul-29 15:30N 40°38' W 074°10'0 0.0
2017-Jul-29 14:54N 40°38' W 074°10'0 0.0
2017-Jul-29 14:00N 40°38' W 074°10'0 0.0
2017-Jul-29 13:30N 40°38' W 074°10'0 0.0
2017-Jul-29 12:54N 40°38' W 074°10'0 0.0
2017-Jul-29 12:30N 40°38' W 074°10'0 0.0
2017-Jul-29 11:54N 40°38' W 074°10'0 0.0
2017-Jul-29 11:30N 40°38' W 074°10'0 0.0
2017-Jul-29 10:46N 40°38' W 074°10'  

Dump ship's entire track history